Time;durP1;ratioP1;P1;durP2;ratioP2;P2;SDS_P1;SDS_P2;PMS_P1;PMS_P2;Temp;Humidity;BMP_temperature;BMP_pressure;BME280_temperature;BME280_humidity;BME280_pressure;Samples;Min_cycle;Max_cycle;Signal;HPM_P1;HPM_P2
2024/01/19 00:02:13;;;;;;;10.40;2.30;;;20.10;70.50;;;;;;5050935;28;20083;-66
2024/01/19 00:04:39;;;;;;;14.07;2.85;;;20.10;70.40;;;;;;5050806;28;20028;-71
2024/01/19 00:07:05;;;;;;;9.90;2.42;;;20.20;70.60;;;;;;5050728;28;20029;-70
2024/01/19 00:09:30;;;;;;;13.52;2.58;;;20.20;70.80;;;;;;5050824;28;20048;-70
2024/01/19 00:11:56;;;;;;;11.18;2.65;;;20.10;70.80;;;;;;5050379;28;20100;-70
2024/01/19 00:14:22;;;;;;;6.70;2.47;;;20.20;70.90;;;;;;5050754;28;20021;-69
2024/01/19 00:16:47;;;;;;;11.00;2.53;;;20.10;71.00;;;;;;5050959;28;20392;-69
2024/01/19 00:19:13;;;;;;;8.27;2.83;;;20.10;70.90;;;;;;5050845;28;20393;-69
2024/01/19 00:21:46;;;;;;;15.15;2.63;;;20.10;71.00;;;;;;5050328;28;20036;-69
2024/01/19 00:24:14;;;;;;;4.95;1.98;;;20.00;71.00;;;;;;5050628;28;20028;-69
2024/01/19 00:26:40;;;;;;;7.45;2.55;;;20.00;71.10;;;;;;5050836;28;20101;-69
2024/01/19 00:29:09;;;;;;;4.63;2.20;;;20.00;71.20;;;;;;5054228;28;20100;-69
2024/01/19 00:31:35;;;;;;;5.63;1.98;;;20.00;71.20;;;;;;5054271;28;20021;-68
2024/01/19 00:34:01;;;;;;;5.20;2.10;;;20.00;71.30;;;;;;5054675;28;20025;-68
2024/01/19 00:36:26;;;;;;;7.97;2.10;;;20.00;71.30;;;;;;5054912;28;20499;-69
2024/01/19 00:38:52;;;;;;;7.53;2.30;;;20.00;71.40;;;;;;5054715;28;20024;-69
2024/01/19 00:41:18;;;;;;;9.02;2.22;;;20.00;71.40;;;;;;5053895;28;20049;-69
2024/01/19 00:43:44;;;;;;;4.25;2.35;;;20.00;71.50;;;;;;5054818;28;20118;-69
2024/01/19 00:46:10;;;;;;;5.53;2.40;;;20.00;71.50;;;;;;5053284;28;20056;-68
2024/01/19 00:48:36;;;;;;;5.47;2.40;;;20.00;71.50;;;;;;5054314;28;20021;-69
2024/01/19 00:51:02;;;;;;;7.53;2.25;;;20.00;71.50;;;;;;5053847;28;20044;-69
2024/01/19 00:53:28;;;;;;;5.53;2.20;;;20.00;71.60;;;;;;5054360;28;20358;-70
2024/01/19 00:55:54;;;;;;;7.07;2.78;;;20.00;71.70;;;;;;5067435;22;20103;-71
2024/01/19 00:58:19;;;;;;;5.13;1.80;;;20.00;71.60;;;;;;5052722;28;20025;-70
2024/01/19 01:00:45;;;;;;;7.00;2.25;;;20.00;71.70;;;;;;5052023;28;20052;-71
2024/01/19 01:03:11;;;;;;;5.25;2.10;;;20.00;71.70;;;;;;5053913;28;20028;-72
2024/01/19 01:05:36;;;;;;;4.68;2.28;;;20.00;71.70;;;;;;5053960;28;20095;-71
2024/01/19 01:08:02;;;;;;;7.35;2.60;;;20.00;71.70;;;;;;5053842;28;20079;-72
2024/01/19 01:10:28;;;;;;;6.45;2.55;;;20.00;71.90;;;;;;5053181;28;20023;-71
2024/01/19 01:12:53;;;;;;;3.38;2.00;;;20.00;71.80;;;;;;5053729;28;20036;-71
2024/01/19 01:15:19;;;;;;;5.07;2.05;;;20.00;71.90;;;;;;5053954;28;20028;-70
2024/01/19 01:17:44;;;;;;;6.03;2.30;;;20.00;71.80;;;;;;5054043;28;20089;-71
2024/01/19 01:20:15;;;;;;;8.23;2.58;;;20.00;71.80;;;;;;5052951;28;20496;-70
2024/01/19 01:22:41;;;;;;;6.13;2.00;;;20.00;71.90;;;;;;5053655;28;20400;-69
2024/01/19 01:25:06;;;;;;;3.35;1.70;;;20.00;72.10;;;;;;5053704;28;20025;-70
2024/01/19 01:27:32;;;;;;;3.28;1.83;;;20.00;72.00;;;;;;5053908;28;20118;-70
2024/01/19 01:29:58;;;;;;;4.75;1.77;;;20.00;71.90;;;;;;5053485;28;20025;-71
2024/01/19 01:32:23;;;;;;;6.85;2.00;;;20.00;71.90;;;;;;5061822;28;20028;-72
2024/01/19 01:34:49;;;;;;;4.63;1.90;;;20.00;71.90;;;;;;5066162;28;20021;-69
2024/01/19 01:37:14;;;;;;;9.10;2.10;;;20.00;72.00;;;;;;5067069;28;20021;-71
2024/01/19 01:39:40;;;;;;;4.05;1.55;;;20.00;72.00;;;;;;5068070;28;20025;-71
2024/01/19 01:42:06;;;;;;;6.70;2.30;;;20.00;72.00;;;;;;5069116;28;20025;-70
2024/01/19 01:44:31;;;;;;;6.07;1.67;;;20.00;72.10;;;;;;5069291;28;20033;-70
2024/01/19 01:46:57;;;;;;;3.42;1.83;;;20.00;72.10;;;;;;5058786;28;20508;-70
2024/01/19 01:49:23;;;;;;;3.60;2.03;;;20.00;72.20;;;;;;5052969;28;20044;-69
2024/01/19 01:51:49;;;;;;;11.88;2.25;;;20.00;72.30;;;;;;5052684;28;20017;-71
2024/01/19 01:54:15;;;;;;;4.78;1.80;;;20.00;72.50;;;;;;5052939;28;20073;-70
2024/01/19 01:56:41;;;;;;;3.70;2.08;;;20.00;72.70;;;;;;5052847;28;20470;-70
2024/01/19 01:59:08;;;;;;;4.00;1.90;;;20.00;72.60;;;;;;5052954;28;20025;-70
2024/01/19 02:01:34;;;;;;;5.93;2.08;;;20.00;72.40;;;;;;5052216;28;20029;-70
2024/01/19 02:04:00;;;;;;;7.85;1.85;;;20.00;72.60;;;;;;5052782;28;20400;-68
2024/01/19 02:06:28;;;;;;;6.88;1.85;;;20.00;73.10;;;;;;5052662;28;20017;-68
2024/01/19 02:08:54;;;;;;;5.80;2.13;;;20.00;72.70;;;;;;5052770;28;20108;-67
2024/01/19 02:11:19;;;;;;;9.77;1.90;;;20.00;72.90;;;;;;5051637;28;20033;-67
2024/01/19 02:13:45;;;;;;;9.45;2.35;;;20.00;72.90;;;;;;5052700;28;20032;-68
2024/01/19 02:16:11;;;;;;;8.65;2.60;;;20.00;73.10;;;;;;5052799;28;20448;-69
2024/01/19 02:18:36;;;;;;;6.95;2.00;;;20.00;73.00;;;;;;5052594;28;20028;-68
2024/01/19 02:21:03;;;;;;;24.05;2.53;;;20.00;73.00;;;;;;5051809;28;20058;-68
2024/01/19 02:23:35;;;;;;;16.83;2.03;;;20.00;72.90;;;;;;5052480;28;20113;-68
2024/01/19 02:26:03;;;;;;;9.80;2.28;;;20.00;73.00;;;;;;5052426;28;20021;-69
2024/01/19 02:28:29;;;;;;;13.18;1.65;;;20.00;73.10;;;;;;5052403;28;20021;-69
2024/01/19 02:30:54;;;;;;;4.85;2.10;;;20.00;73.10;;;;;;5051392;28;20028;-69
2024/01/19 02:33:20;;;;;;;4.90;1.48;;;20.00;73.10;;;;;;5052407;28;20040;-67
2024/01/19 02:35:46;;;;;;;4.32;2.13;;;20.00;73.10;;;;;;5052315;28;20104;-69
2024/01/19 02:38:11;;;;;;;5.32;1.75;;;20.00;73.10;;;;;;5052223;28;20103;-69
2024/01/19 02:40:37;;;;;;;6.93;1.80;;;20.00;73.20;;;;;;5051422;28;20025;-68
2024/01/19 02:43:03;;;;;;;7.30;1.80;;;20.00;73.30;;;;;;5052280;28;20083;-68
2024/01/19 02:45:28;;;;;;;6.88;2.40;;;20.00;73.10;;;;;;5051936;28;20025;-69
2024/01/19 02:47:54;;;;;;;7.63;2.28;;;20.00;73.10;;;;;;5052003;28;20021;-69
2024/01/19 02:50:19;;;;;;;4.35;2.05;;;20.00;73.30;;;;;;5051046;28;20037;-69
2024/01/19 02:52:45;;;;;;;8.45;2.38;;;20.00;73.30;;;;;;5051922;28;20128;-67
2024/01/19 02:55:11;;;;;;;4.10;1.77;;;20.00;73.30;;;;;;5051535;28;20476;-68
2024/01/19 02:57:37;;;;;;;8.80;1.98;;;20.00;73.30;;;;;;5051782;28;20067;-68
2024/01/19 03:00:04;;;;;;;2.80;1.70;;;20.00;73.40;;;;;;5051089;28;20064;-68
2024/01/19 03:02:30;;;;;;;6.68;2.22;;;20.00;73.40;;;;;;5050522;28;20059;-69
2024/01/19 03:04:56;;;;;;;2.65;1.55;;;20.00;73.40;;;;;;5051533;28;20025;-68
2024/01/19 03:07:22;;;;;;;3.28;1.52;;;20.00;73.30;;;;;;5051723;28;20370;-69
2024/01/19 03:09:48;;;;;;;6.00;1.50;;;20.00;73.40;;;;;;5050747;28;20025;-68
2024/01/19 03:12:13;;;;;;;6.70;1.75;;;20.00;73.40;;;;;;5049997;28;20047;-69
2024/01/19 03:14:39;;;;;;;3.60;2.15;;;20.00;73.40;;;;;;5051356;28;20021;-68
2024/01/19 03:17:05;;;;;;;5.72;1.65;;;19.90;73.40;;;;;;5051329;28;20504;-69
2024/01/19 03:19:31;;;;;;;6.53;2.10;;;19.90;73.40;;;;;;5051175;28;20112;-67
2024/01/19 03:21:57;;;;;;;6.00;2.00;;;19.90;73.40;;;;;;5050497;28;20032;-67
2024/01/19 03:24:23;;;;;;;3.10;1.30;;;19.90;73.40;;;;;;5050877;28;20037;-66
2024/01/19 03:26:48;;;;;;;3.88;1.38;;;19.90;73.50;;;;;;5051292;28;20028;-67
2024/01/19 03:29:14;;;;;;;6.20;1.77;;;19.90;73.50;;;;;;5050721;28;20449;-69
2024/01/19 03:31:40;;;;;;;7.93;2.50;;;19.90;73.50;;;;;;5049235;28;20036;-69
2024/01/19 03:34:05;;;;;;;2.88;1.60;;;19.80;73.50;;;;;;5050797;28;20079;-69
2024/01/19 03:36:31;;;;;;;3.22;1.35;;;19.80;73.50;;;;;;5050992;28;20025;-70
2024/01/19 03:38:56;;;;;;;2.45;1.38;;;19.80;73.50;;;;;;5050905;28;20578;-69
2024/01/19 03:41:22;;;;;;;4.10;1.42;;;19.80;73.50;;;;;;5050356;28;20037;-68
2024/01/19 03:43:48;;;;;;;5.85;1.73;;;19.80;73.50;;;;;;5051000;28;20550;-69
2024/01/19 03:46:13;;;;;;;3.38;1.50;;;19.70;73.50;;;;;;5050442;28;20027;-70
2024/01/19 03:48:39;;;;;;;3.60;1.40;;;19.70;73.60;;;;;;5049519;28;20033;-69
2024/01/19 03:51:04;;;;;;;2.30;1.17;;;19.70;73.50;;;;;;5050221;28;20017;-69
2024/01/19 03:53:30;;;;;;;8.68;1.63;;;19.70;73.60;;;;;;5050961;28;20025;-69
2024/01/19 03:55:56;;;;;;;3.35;1.60;;;19.70;73.60;;;;;;5050541;28;20037;-69
2024/01/19 03:58:21;;;;;;;2.63;1.25;;;19.80;73.70;;;;;;5050905;28;20032;-69
2024/01/19 04:00:47;;;;;;;3.70;1.60;;;19.70;73.80;;;;;;5050252;28;20033;-68
2024/01/19 04:03:12;;;;;;;3.28;1.63;;;19.70;73.90;;;;;;5051451;28;20373;-67
2024/01/19 04:05:38;;;;;;;2.63;1.30;;;19.70;74.10;;;;;;5054644;28;20116;-68
2024/01/19 04:08:03;;;;;;;6.80;1.60;;;19.70;74.20;;;;;;5054328;28;20056;-66
2024/01/19 04:10:29;;;;;;;3.00;1.17;;;19.70;74.30;;;;;;5052597;28;20534;-67
2024/01/19 04:12:55;;;;;;;3.70;1.15;;;19.70;74.40;;;;;;5053499;28;20502;-66
2024/01/19 04:15:20;;;;;;;2.72;1.15;;;19.70;74.50;;;;;;5054661;28;20029;-66
2024/01/19 04:17:46;;;;;;;1.98;1.15;;;19.70;74.50;;;;;;5054683;28;20484;-66
2024/01/19 04:20:11;;;;;;;2.30;1.13;;;19.70;74.60;;;;;;5053834;28;20024;-67
2024/01/19 04:22:37;;;;;;;4.38;1.52;;;19.70;74.60;;;;;;5054514;28;20492;-66
2024/01/19 04:25:03;;;;;;;2.85;1.20;;;19.70;74.70;;;;;;5054153;28;20100;-65
2024/01/19 04:27:29;;;;;;;3.85;1.13;;;19.70;74.70;;;;;;5054523;28;20436;-66
2024/01/19 04:29:55;;;;;;;2.53;1.30;;;19.70;74.90;;;;;;5053666;28;20018;-66
2024/01/19 04:32:21;;;;;;;3.60;1.45;;;19.70;74.90;;;;;;5054340;28;20021;-67
2024/01/19 04:34:47;;;;;;;3.28;1.48;;;19.70;75.00;;;;;;5053873;28;20032;-67
2024/01/19 04:37:13;;;;;;;5.28;1.08;;;19.70;74.90;;;;;;5053821;28;20029;-68
2024/01/19 04:39:38;;;;;;;2.13;1.33;;;19.70;75.00;;;;;;5053296;28;20086;-67
2024/01/19 04:42:04;;;;;;;8.02;1.20;;;19.70;75.00;;;;;;5053351;28;20115;-69
2024/01/19 04:44:30;;;;;;;15.13;1.90;;;19.70;75.10;;;;;;5054190;28;20032;-69
2024/01/19 04:46:55;;;;;;;8.85;1.40;;;19.70;75.40;;;;;;5054274;28;20448;-69
2024/01/19 04:49:21;;;;;;;6.97;1.38;;;19.80;75.30;;;;;;5054109;28;20495;-70
2024/01/19 04:51:47;;;;;;;8.70;1.20;;;19.80;75.30;;;;;;5053510;28;20025;-71
2024/01/19 04:54:12;;;;;;;10.95;1.88;;;19.80;75.40;;;;;;5054054;28;20082;-69
2024/01/19 04:56:38;;;;;;;13.88;2.08;;;19.90;75.70;;;;;;5069577;28;20107;-68
2024/01/19 04:59:04;;;;;;;7.63;1.40;;;19.80;75.70;;;;;;5054169;28;20035;-69
2024/01/19 05:01:29;;;;;;;8.15;1.73;;;19.80;75.70;;;;;;5053202;28;20083;-70
2024/01/19 05:03:55;;;;;;;12.13;1.65;;;19.80;75.60;;;;;;5053587;28;20492;-69
2024/01/19 05:06:20;;;;;;;8.23;1.70;;;19.80;75.60;;;;;;5053208;28;20485;-68
2024/01/19 05:08:46;;;;;;;9.60;1.50;;;19.80;75.70;;;;;;5053945;28;20067;-68
2024/01/19 05:11:13;;;;;;;2.10;1.30;;;19.80;75.70;;;;;;5052873;28;20416;-68
2024/01/19 05:13:40;;;;;;;8.90;1.50;;;19.70;75.60;;;;;;5053706;28;20064;-67
2024/01/19 05:16:06;;;;;;;9.75;1.42;;;19.70;75.50;;;;;;5053660;28;20025;-69
2024/01/19 05:18:31;;;;;;;4.00;1.20;;;19.70;75.40;;;;;;5053625;28;20017;-70
2024/01/19 05:20:57;;;;;;;8.52;1.67;;;19.70;75.40;;;;;;5052787;28;20033;-68
2024/01/19 05:23:23;;;;;;;3.50;1.50;;;19.70;75.30;;;;;;5053542;28;20068;-68
2024/01/19 05:25:48;;;;;;;4.28;1.60;;;19.60;75.30;;;;;;5053344;28;20021;-69
2024/01/19 05:28:14;;;;;;;2.85;1.10;;;19.60;75.30;;;;;;5053423;28;20078;-70
2024/01/19 05:30:40;;;;;;;7.20;1.50;;;19.60;75.20;;;;;;5052847;28;20025;-69
2024/01/19 05:33:06;;;;;;;2.90;1.40;;;19.70;75.20;;;;;;5053386;28;20095;-70
2024/01/19 05:35:32;;;;;;;6.88;1.42;;;19.60;75.20;;;;;;5053195;28;20392;-67
2024/01/19 05:37:57;;;;;;;2.63;1.30;;;19.60;75.10;;;;;;5053601;28;20048;-69
2024/01/19 05:40:23;;;;;;;9.85;1.92;;;19.50;75.10;;;;;;5052476;28;20452;-68
2024/01/19 05:42:48;;;;;;;6.68;1.35;;;19.60;75.20;;;;;;5053018;28;20025;-68
2024/01/19 05:45:14;;;;;;;12.25;2.42;;;19.60;75.00;;;;;;5053104;28;20054;-69
2024/01/19 05:47:41;;;;;;;14.73;4.75;;;19.50;74.80;;;;;;5053057;28;20028;-68
2024/01/19 05:50:07;;;;;;;14.27;7.13;;;19.30;68.80;;;;;;5058029;28;20021;-69
2024/01/19 05:52:32;;;;;;;14.32;7.88;;;18.70;64.70;;;;;;5066584;28;20032;-69
2024/01/19 05:54:58;;;;;;;13.10;9.07;;;18.20;62.40;;;;;;5067387;28;20045;-69
2024/01/19 05:57:23;;;;;;;13.48;8.43;;;17.80;62.70;;;;;;5068495;28;20021;-70
2024/01/19 05:59:49;;;;;;;10.82;8.55;;;17.50;62.50;;;;;;5065974;28;20036;-70
2024/01/19 06:02:15;;;;;;;15.32;9.35;;;17.30;61.30;;;;;;5065764;28;20029;-70
2024/01/19 06:04:41;;;;;;;13.02;9.88;;;17.10;60.80;;;;;;5054232;28;20036;-69
2024/01/19 06:07:07;;;;;;;10.75;8.75;;;17.00;60.40;;;;;;5053029;28;20028;-68
2024/01/19 06:09:33;;;;;;;11.10;8.75;;;16.80;58.90;;;;;;5052594;28;20407;-68
2024/01/19 06:11:58;;;;;;;9.85;4.53;;;16.70;62.20;;;;;;5052081;28;20097;-69
2024/01/19 06:14:24;;;;;;;11.63;4.35;;;17.20;74.20;;;;;;5052613;28;20044;-64
2024/01/19 06:16:50;;;;;;;15.55;4.55;;;17.60;75.30;;;;;;5052462;28;20090;-68
2024/01/19 06:19:15;;;;;;;9.32;3.88;;;18.00;75.00;;;;;;5052457;28;20502;-69
2024/01/19 06:21:45;;;;;;;8.82;4.35;;;18.20;74.20;;;;;;5051732;28;20029;-68
2024/01/19 06:24:17;;;;;;;11.70;4.10;;;18.50;73.50;;;;;;5052285;28;20028;-68
2024/01/19 06:26:48;;;;;;;7.72;3.30;;;18.60;72.80;;;;;;5051745;28;20543;-68
2024/01/19 06:29:16;;;;;;;15.18;3.65;;;18.70;72.30;;;;;;5050999;28;20112;-69
2024/01/19 06:31:46;;;;;;;8.35;3.40;;;18.70;72.00;;;;;;5050569;28;20437;-68
2024/01/19 06:34:13;;;;;;;15.00;8.52;;;18.80;71.70;;;;;;5050765;28;20431;-69
2024/01/19 06:36:38;;;;;;;13.75;9.38;;;18.30;60.30;;;;;;5052123;28;20029;-71
2024/01/19 06:39:07;;;;;;;17.33;10.98;;;17.60;54.20;;;;;;5051453;28;20074;-68
2024/01/19 06:41:33;;;;;;;15.52;11.77;;;;;;;;;;5049080;28;20021;-67
2024/01/19 06:43:59;;;;;;;16.67;11.45;;;;;;;;;;5051706;28;20065;-66
2024/01/19 06:46:25;;;;;;;19.13;7.40;;;;;;;;;;5051433;28;20048;-67
2024/01/19 06:48:51;;;;;;;15.48;6.50;;;;;;;;;;5051798;28;20472;-67
2024/01/19 06:51:18;;;;;;;16.98;6.45;;;15.30;76.40;;;;;;5051108;28;20025;-65
2024/01/19 06:53:43;;;;;;;12.77;6.10;;;15.80;76.80;;;;;;5051588;28;20107;-65
2024/01/19 06:56:09;;;;;;;28.73;7.13;;;16.30;76.40;;;;;;5051739;28;20033;-62
2024/01/19 06:58:35;;;;;;;22.95;6.18;;;16.80;75.70;;;;;;5051594;28;20046;-67
2024/01/19 07:01:00;;;;;;;14.00;4.82;;;17.10;75.00;;;;;;5050853;28;20028;-67
2024/01/19 07:03:26;;;;;;;19.85;4.93;;;17.40;74.30;;;;;;5051586;28;20508;-65
2024/01/19 07:05:51;;;;;;;11.80;4.28;;;17.60;73.90;;;;;;5051386;28;20060;-65
2024/01/19 07:08:17;;;;;;;13.40;4.70;;;17.80;73.30;;;;;;5051612;28;20025;-66
2024/01/19 07:10:42;;;;;;;12.43;3.72;;;18.00;73.00;;;;;;5050873;28;20033;-67
2024/01/19 07:13:08;;;;;;;11.50;9.15;;;18.00;72.60;;;;;;5051204;28;20032;-65
2024/01/19 07:15:34;;;;;;;12.43;10.60;;;16.70;43.00;;;;;;5051156;28;20021;-66
2024/01/19 07:17:59;;;;;;;15.77;10.95;;;14.50;42.90;;;;;;5051505;28;20484;-66
2024/01/19 07:20:25;;;;;;;14.40;9.85;;;;;;;;;;5050531;28;20029;-67
2024/01/19 07:22:55;;;;;;;14.63;11.27;;;;;;;;;;5051150;28;20417;-68
2024/01/19 07:25:21;;;;;;;14.55;10.95;;;;;;;;;;5051072;28;20048;-66
2024/01/19 07:27:47;;;;;;;13.00;10.88;;;;;;;;;;5051315;28;20056;-68
2024/01/19 07:30:13;;;;;;;13.80;9.35;;;;;;;;;;5050295;28;20065;-64
2024/01/19 07:32:39;;;;;;;11.20;9.07;;;;;;;;;;5050647;28;20472;-66
2024/01/19 07:35:05;;;;;;;13.32;9.18;;;;;;;;;;5051055;28;20060;-67
2024/01/19 07:37:31;;;;;;;14.35;7.88;;;;;;;;;;5050049;28;20082;-67
2024/01/19 07:39:57;;;;;;;23.20;8.02;;;;;;;;;;5049949;28;20412;-67
2024/01/19 07:42:23;;;;;;;15.65;7.32;;;;;;;;;;5050749;28;20021;-66
2024/01/19 07:44:50;;;;;;;12.93;5.45;;;;;;;;;;5050676;28;20503;-62
2024/01/19 07:47:16;;;;;;;12.52;5.50;;;;;;;;;;5051010;28;20120;-66
2024/01/19 07:49:42;;;;;;;11.32;5.10;;;;;;;;;;5049636;28;20564;-64
2024/01/19 07:52:08;;;;;;;8.55;4.35;;;;;;;;;;5050470;28;20017;-64
2024/01/19 07:54:33;;;;;;;16.08;3.83;;;;;;;;;;5050576;28;20040;-65
2024/01/19 07:57:00;;;;;;;4.32;3.22;;;;;;;;;;5050597;28;20021;-64
2024/01/19 07:59:25;;;;;;;7.32;3.40;;;16.50;62.10;;;;;;5050521;28;20033;-65
2024/01/19 08:01:51;;;;;;;7.80;3.40;;;16.60;62.00;;;;;;5050271;28;20036;-65
2024/01/19 08:04:16;;;;;;;7.38;2.70;;;16.80;62.00;;;;;;5050715;28;20152;-65
2024/01/19 08:06:42;;;;;;;5.95;2.80;;;17.00;61.90;;;;;;5050721;28;20068;-64
2024/01/19 08:09:11;;;;;;;7.43;2.30;;;17.10;61.80;;;;;;5050813;28;20024;-63
2024/01/19 08:11:36;;;;;;;4.75;2.30;;;17.30;61.70;;;;;;5050023;28;20215;-64
2024/01/19 08:14:02;;;;;;;12.57;2.40;;;17.40;61.60;;;;;;5050731;28;20437;-66
2024/01/19 08:16:27;;;;;;;4.13;2.03;;;17.50;61.70;;;;;;5050514;28;20025;-65
2024/01/19 08:18:56;;;;;;;4.03;2.10;;;17.60;61.60;;;;;;5050830;28;20052;-64
2024/01/19 08:21:22;;;;;;;3.58;2.20;;;17.70;61.60;;;;;;5049936;28;20024;-64
2024/01/19 08:23:47;;;;;;;4.72;2.22;;;17.80;61.60;;;;;;5050496;28;20033;-65
2024/01/19 08:26:13;;;;;;;5.75;2.10;;;17.90;61.70;;;;;;5050543;28;20033;-65
2024/01/19 08:28:39;;;;;;;5.53;1.92;;;18.00;61.70;;;;;;5050410;28;20048;-62
2024/01/19 08:31:10;;;;;;;4.68;1.90;;;18.00;61.70;;;;;;5050018;28;20017;-66
2024/01/19 08:33:36;;;;;;;4.70;2.00;;;18.00;61.70;;;;;;5050593;28;20032;-64
2024/01/19 08:36:02;;;;;;;3.13;1.50;;;18.00;61.70;;;;;;5050413;28;20033;-65
2024/01/19 08:38:27;;;;;;;8.00;2.00;;;18.10;61.70;;;;;;5050470;28;20032;-64
2024/01/19 08:40:53;;;;;;;3.25;2.00;;;18.20;61.70;;;;;;5049534;28;20025;-65
2024/01/19 08:43:19;;;;;;;4.53;1.60;;;18.20;61.70;;;;;;5050222;28;20064;-65
2024/01/19 08:45:45;;;;;;;4.85;2.03;;;18.30;61.70;;;;;;5050474;28;20106;-65
2024/01/19 08:48:11;;;;;;;3.35;1.40;;;18.30;61.70;;;;;;5050707;28;20025;-66
2024/01/19 08:50:38;;;;;;;4.43;1.65;;;18.40;61.70;;;;;;5053484;28;20036;-64
2024/01/19 08:53:04;;;;;;;8.07;2.50;;;18.50;61.60;;;;;;5054251;28;20503;-65
2024/01/19 08:55:29;;;;;;;3.63;1.73;;;18.50;61.60;;;;;;5053911;28;20037;-61
2024/01/19 08:57:55;;;;;;;8.07;1.98;;;18.50;61.60;;;;;;5054424;28;20029;-66
2024/01/19 09:00:21;;;;;;;5.35;2.33;;;18.50;61.60;;;;;;5053519;28;20044;-64
2024/01/19 09:02:48;;;;;;;4.47;1.60;;;18.60;61.60;;;;;;5053922;28;20036;-67
2024/01/19 09:05:14;;;;;;;3.53;1.20;;;18.60;61.60;;;;;;5054082;28;20029;-65
2024/01/19 09:07:40;;;;;;;5.18;1.65;;;18.60;61.60;;;;;;5054017;28;20021;-64
2024/01/19 09:10:07;;;;;;;3.15;1.70;;;18.60;61.60;;;;;;5053359;28;20499;-65
2024/01/19 09:12:33;;;;;;;2.72;1.52;;;18.60;61.60;;;;;;5053692;28;20025;-64
2024/01/19 09:14:58;;;;;;;3.50;1.15;;;18.70;61.70;;;;;;5053444;28;20043;-64
2024/01/19 09:17:24;;;;;;;1.90;1.60;;;18.70;61.80;;;;;;5053831;28;20108;-65
2024/01/19 09:19:51;;;;;;;3.88;1.67;;;18.70;61.80;;;;;;5052935;28;20058;-66
2024/01/19 09:22:17;;;;;;;3.63;1.50;;;18.70;61.80;;;;;;5052153;28;20501;-64
2024/01/19 09:24:43;;;;;;;2.80;1.45;;;18.80;61.80;;;;;;5053363;28;20052;-64
2024/01/19 09:27:08;;;;;;;2.75;1.40;;;18.80;61.90;;;;;;5053550;28;20021;-65
2024/01/19 09:29:34;;;;;;;1.80;1.30;;;18.80;62.00;;;;;;5053575;28;20043;-64
2024/01/19 09:32:00;;;;;;;4.05;1.40;;;18.90;62.00;;;;;;5053057;28;20013;-64
2024/01/19 09:34:25;;;;;;;3.80;1.70;;;18.90;62.00;;;;;;5053228;28;20090;-62
2024/01/19 09:36:51;;;;;;;4.47;1.52;;;18.90;62.10;;;;;;5053185;28;20110;-64
2024/01/19 09:39:17;;;;;;;1.48;1.23;;;18.90;62.10;;;;;;5052968;28;20028;-67
2024/01/19 09:41:49;;;;;;;2.70;1.50;;;18.90;62.20;;;;;;5052775;28;20511;-64
2024/01/19 09:44:19;;;;;;;1.88;1.05;;;18.90;62.20;;;;;;5052932;28;20040;-64
2024/01/19 09:46:51;;;;;;;2.40;1.15;;;18.90;62.30;;;;;;5053354;28;20036;-64
2024/01/19 09:49:39;;;;;;;1.98;1.05;;;19.00;62.30;;;;;;5053364;28;20032;-65
2024/01/19 09:52:26;;;;;;;2.28;1.30;;;19.00;62.40;;;;;;5052506;28;20356;-64
2024/01/19 09:54:54;;;;;;;2.88;1.60;;;19.00;62.40;;;;;;5052747;28;20032;-65
2024/01/19 09:57:19;;;;;;;3.35;1.15;;;19.00;62.50;;;;;;5052895;28;20025;-65
2024/01/19 09:59:45;;;;;;;2.95;1.52;;;19.00;62.60;;;;;;5051445;28;20074;-63
2024/01/19 10:02:13;;;;;;;1.77;1.15;;;19.00;62.60;;;;;;5052066;28;20494;-66
2024/01/19 10:04:39;;;;;;;5.80;1.42;;;19.00;62.60;;;;;;5052502;28;20031;-65
2024/01/19 10:07:04;;;;;;;1.90;1.20;;;19.00;62.70;;;;;;5053060;28;20017;-66
2024/01/19 10:09:32;;;;;;;3.13;1.35;;;19.00;62.70;;;;;;5052609;28;20021;-66
2024/01/19 10:11:58;;;;;;;19.58;2.95;;;19.00;62.80;;;;;;5052272;28;20017;-65
2024/01/19 10:14:25;;;;;;;7.15;1.55;;;19.00;63.40;;;;;;5052556;28;20093;-64
2024/01/19 10:16:51;;;;;;;8.60;1.88;;;19.00;63.60;;;;;;5052441;28;20036;-68
2024/01/19 10:19:21;;;;;;;4.38;1.23;;;19.00;63.60;;;;;;5052592;28;20040;-68
2024/01/19 10:21:46;;;;;;;6.60;1.60;;;19.10;63.60;;;;;;5051812;28;20032;-66
2024/01/19 10:24:19;;;;;;;10.32;1.98;;;19.10;63.80;;;;;;5052322;28;20025;-65
2024/01/19 10:26:52;;;;;;;10.02;1.90;;;19.10;63.80;;;;;;5052131;28;20021;-65
2024/01/19 10:29:18;;;;;;;9.77;1.92;;;19.20;63.70;;;;;;5052231;28;20071;-64
2024/01/19 10:31:49;;;;;;;4.07;1.50;;;19.10;63.60;;;;;;5051792;28;20032;-66
2024/01/19 10:34:26;;;;;;;;;;;19.10;63.70;;;;;;5052399;28;20082;-65
2024/01/19 10:36:52;;;;;;;5.97;1.42;;;19.20;63.60;;;;;;5052261;28;19904;-69
2024/01/19 10:39:31;;;;;;;9.32;1.35;;;19.20;63.90;;;;;;5051813;28;20029;-67
2024/01/19 10:42:07;;;;;;;11.60;1.88;;;19.20;63.70;;;;;;5051447;28;20103;-68
2024/01/19 10:44:34;;;;;;;7.20;1.58;;;19.30;63.60;;;;;;5051979;28;20051;-68
2024/01/19 10:47:00;;;;;;;5.53;1.67;;;19.30;63.50;;;;;;5052046;28;20044;-68
2024/01/19 10:49:26;;;;;;;6.57;1.40;;;19.30;63.50;;;;;;5051772;28;20029;-67
2024/01/19 10:51:52;;;;;;;3.95;1.13;;;19.40;63.50;;;;;;5051187;28;20393;-69
2024/01/19 10:54:26;;;;;;;5.15;1.27;;;19.40;63.60;;;;;;5051015;28;20033;-69
2024/01/19 10:57:04;;;;;;;2.20;0.93;;;19.40;63.70;;;;;;5050530;28;20547;-67
2024/01/19 10:59:30;;;;;;;5.97;1.83;;;19.40;64.20;;;;;;5050168;28;20035;-69
2024/01/19 11:02:01;;;;;;;10.27;1.75;;;19.40;64.00;;;;;;5049546;28;20099;-69
2024/01/19 11:04:27;;;;;;;4.82;1.33;;;19.40;63.90;;;;;;5050111;28;20029;-68
2024/01/19 11:06:53;;;;;;;6.18;1.30;;;19.40;63.90;;;;;;5050217;28;20037;-69
2024/01/19 11:09:19;;;;;;;2.08;1.10;;;19.40;63.90;;;;;;5049943;28;20021;-69
2024/01/19 11:11:54;;;;;;;1.50;1.00;;;19.40;63.80;;;;;;5049477;28;20078;-70
2024/01/19 11:14:23;;;;;;;6.93;1.50;;;19.50;63.60;;;;;;5050027;28;20556;-69
2024/01/19 11:16:52;;;;;;;8.27;1.40;;;19.40;63.60;;;;;;5049965;28;20532;-70
2024/01/19 11:19:18;;;;;;;16.73;2.03;;;19.50;63.90;;;;;;5049773;28;20033;-68
2024/01/19 11:21:44;;;;;;;8.07;1.80;;;19.50;64.00;;;;;;5049268;28;20408;-70
2024/01/19 11:24:11;;;;;;;10.27;1.45;;;19.50;64.20;;;;;;5049834;28;20021;-71
2024/01/19 11:27:05;;;;;;;11.25;1.50;;;19.50;64.30;;;;;;5049901;28;20025;-69
2024/01/19 11:29:42;;;;;;;9.57;1.60;;;19.50;64.50;;;;;;5041385;28;20495;-71
2024/01/19 11:32:09;;;;;;;8.30;1.20;;;19.50;64.50;;;;;;5049650;28;20101;-69
2024/01/19 11:34:50;;;;;;;15.45;1.45;;;19.50;64.60;;;;;;5049650;28;20084;-68
2024/01/19 11:37:37;;;;;;;24.85;3.58;;;19.50;64.80;;;;;;5048518;28;20499;-67
2024/01/19 11:40:03;;;;;;;16.55;2.35;;;19.50;64.60;;;;;;5049048;28;20476;-68
2024/01/19 11:42:34;;;;;;;11.80;1.45;;;19.50;64.60;;;;;;5049985;28;20089;-67
2024/01/19 11:45:00;;;;;;;7.35;1.30;;;19.50;64.70;;;;;;5048321;28;20028;-68
2024/01/19 11:47:35;;;;;;;5.93;1.02;;;19.40;64.50;;;;;;5049036;28;20032;-67
2024/01/19 11:50:05;;;;;;;8.43;1.25;;;19.50;64.50;;;;;;5048893;28;20459;-68
2024/01/19 11:52:35;;;;;;;10.57;2.10;;;19.40;64.50;;;;;;5049519;28;20139;-67
2024/01/19 11:55:27;;;;;;;10.77;1.60;;;19.40;64.50;;;;;;5049215;28;20089;-67
2024/01/19 11:57:53;;;;;;;8.40;1.23;;;19.40;64.50;;;;;;5049557;28;20392;-67
2024/01/19 12:00:20;;;;;;;9.95;1.05;;;19.40;64.50;;;;;;5049009;28;20029;-67
2024/01/19 12:02:54;;;;;;;3.78;1.50;;;19.30;64.60;;;;;;5049231;28;20061;-66
2024/01/19 12:05:21;;;;;;;11.60;1.50;;;19.30;64.60;;;;;;5049393;28;20031;-68
2024/01/19 12:07:46;;;;;;;4.93;0.95;;;19.30;64.50;;;;;;5049505;28;20461;-70
2024/01/19 12:10:15;;;;;;;16.92;1.42;;;19.30;64.50;;;;;;5048819;28;20057;-69
2024/01/19 12:12:41;;;;;;;11.38;1.42;;;19.30;64.60;;;;;;5049148;28;20025;-69
2024/01/19 12:15:08;;;;;;;28.75;1.92;;;19.30;64.80;;;;;;5049147;28;20175;-68
2024/01/19 12:17:37;;;;;;;21.05;1.92;;;19.30;65.00;;;;;;5049187;28;20025;-69
2024/01/19 12:20:06;;;;;;;15.90;2.40;;;19.30;64.90;;;;;;5048559;28;20044;-71
2024/01/19 12:22:32;;;;;;;12.70;1.60;;;19.40;65.10;;;;;;5049357;28;20139;-71
2024/01/19 12:25:16;;;;;;;11.95;1.38;;;19.30;65.00;;;;;;5052254;28;20104;-69
2024/01/19 12:27:42;;;;;;;10.13;1.40;;;19.30;65.10;;;;;;5053192;28;20110;-68
2024/01/19 12:30:21;;;;;;;10.20;1.98;;;19.30;65.20;;;;;;5053190;28;20025;-67
2024/01/19 12:32:47;;;;;;;10.25;1.83;;;19.30;65.30;;;;;;5052918;28;20025;-68
2024/01/19 12:35:13;;;;;;;9.43;1.40;;;19.30;65.60;;;;;;5052913;28;20548;-69
2024/01/19 12:37:39;;;;;;;14.90;2.05;;;19.30;65.50;;;;;;5053022;28;20017;-69
2024/01/19 12:40:33;;;;;;;5.68;1.48;;;19.30;65.80;;;;;;5052552;28;20103;-68
2024/01/19 12:43:03;;;;;;;10.30;1.40;;;19.30;65.80;;;;;;5051026;28;20052;-69
2024/01/19 12:45:29;;;;;;;9.63;1.35;;;19.30;66.20;;;;;;5052777;28;20035;-70
2024/01/19 12:47:54;;;;;;;9.77;1.50;;;19.30;66.20;;;;;;5052903;28;20017;-69
2024/01/19 12:50:20;;;;;;;11.73;1.77;;;19.40;66.20;;;;;;5052115;28;20025;-69